sensor_id;sensor_type;location;lat;lon;timestamp;P1;durP1;ratioP1;P2;durP2;ratioP2
60472;SDS011;46318;52.716;6.444;2023-08-12T00:00:29;8.18;;;7.28;;
60472;SDS011;46318;52.716;6.444;2023-08-12T00:02:55;8.55;;;7.60;;
60472;SDS011;46318;52.716;6.444;2023-08-12T00:05:21;9.55;;;8.40;;
60472;SDS011;46318;52.716;6.444;2023-08-12T00:07:47;10.02;;;8.23;;
60472;SDS011;46318;52.716;6.444;2023-08-12T00:10:14;10.25;;;8.38;;
60472;SDS011;46318;52.716;6.444;2023-08-12T00:12:40;11.00;;;8.77;;
60472;SDS011;46318;52.716;6.444;2023-08-12T00:15:06;9.82;;;8.82;;
60472;SDS011;46318;52.716;6.444;2023-08-12T00:17:35;9.45;;;8.65;;
60472;SDS011;46318;52.716;6.444;2023-08-12T00:20:02;9.57;;;8.40;;
60472;SDS011;46318;52.716;6.444;2023-08-12T00:22:35;10.13;;;9.00;;
60472;SDS011;46318;52.716;6.444;2023-08-12T00:25:02;12.70;;;9.02;;
60472;SDS011;46318;52.716;6.444;2023-08-12T00:27:28;11.40;;;8.43;;
60472;SDS011;46318;52.716;6.444;2023-08-12T00:29:54;11.23;;;9.13;;
60472;SDS011;46318;52.716;6.444;2023-08-12T00:32:20;10.10;;;9.02;;
60472;SDS011;46318;52.716;6.444;2023-08-12T00:34:46;10.20;;;9.30;;
60472;SDS011;46318;52.716;6.444;2023-08-12T00:37:12;11.07;;;8.70;;
60472;SDS011;46318;52.716;6.444;2023-08-12T00:39:38;9.98;;;8.95;;
60472;SDS011;46318;52.716;6.444;2023-08-12T00:42:04;10.85;;;9.07;;
60472;SDS011;46318;52.716;6.444;2023-08-12T00:44:30;9.82;;;8.85;;
60472;SDS011;46318;52.716;6.444;2023-08-12T00:46:56;10.10;;;9.10;;
60472;SDS011;46318;52.716;6.444;2023-08-12T00:49:22;11.95;;;9.55;;
60472;SDS011;46318;52.716;6.444;2023-08-12T00:51:49;12.90;;;9.45;;
60472;SDS011;46318;52.716;6.444;2023-08-12T00:54:16;10.85;;;9.70;;
60472;SDS011;46318;52.716;6.444;2023-08-12T00:56:43;10.30;;;9.18;;
60472;SDS011;46318;52.716;6.444;2023-08-12T00:59:09;11.27;;;9.50;;
60472;SDS011;46318;52.716;6.444;2023-08-12T01:01:36;11.43;;;10.10;;
60472;SDS011;46318;52.716;6.444;2023-08-12T01:04:06;10.75;;;9.65;;
60472;SDS011;46318;52.716;6.444;2023-08-12T01:06:32;11.00;;;9.75;;
60472;SDS011;46318;52.716;6.444;2023-08-12T01:08:59;15.68;;;10.07;;
60472;SDS011;46318;52.716;6.444;2023-08-12T01:11:28;13.38;;;10.63;;
60472;SDS011;46318;52.716;6.444;2023-08-12T01:14:24;10.70;;;9.70;;
60472;SDS011;46318;52.716;6.444;2023-08-12T01:17:00;10.98;;;9.88;;
60472;SDS011;46318;52.716;6.444;2023-08-12T01:19:37;11.98;;;9.43;;
60472;SDS011;46318;52.716;6.444;2023-08-12T01:22:08;9.95;;;8.95;;
60472;SDS011;46318;52.716;6.444;2023-08-12T01:24:37;10.60;;;8.98;;
60472;SDS011;46318;52.716;6.444;2023-08-12T01:27:05;10.85;;;9.32;;
60472;SDS011;46318;52.716;6.444;2023-08-12T01:29:35;10.80;;;9.32;;
60472;SDS011;46318;52.716;6.444;2023-08-12T01:32:08;10.32;;;9.25;;
60472;SDS011;46318;52.716;6.444;2023-08-12T01:34:54;11.43;;;9.38;;
60472;SDS011;46318;52.716;6.444;2023-08-12T01:37:41;11.27;;;9.90;;
60472;SDS011;46318;52.716;6.444;2023-08-12T01:40:14;10.68;;;9.38;;
60472;SDS011;46318;52.716;6.444;2023-08-12T01:42:42;9.95;;;9.00;;
60472;SDS011;46318;52.716;6.444;2023-08-12T01:45:09;12.10;;;10.10;;
60472;SDS011;46318;52.716;6.444;2023-08-12T01:47:35;11.27;;;9.98;;
60472;SDS011;46318;52.716;6.444;2023-08-12T01:50:01;11.82;;;9.52;;
60472;SDS011;46318;52.716;6.444;2023-08-12T01:52:28;10.38;;;9.38;;
60472;SDS011;46318;52.716;6.444;2023-08-12T01:54:54;11.50;;;10.02;;
60472;SDS011;46318;52.716;6.444;2023-08-12T01:57:20;10.85;;;9.77;;
60472;SDS011;46318;52.716;6.444;2023-08-12T01:59:46;10.10;;;8.65;;
60472;SDS011;46318;52.716;6.444;2023-08-12T02:02:12;10.48;;;9.32;;
60472;SDS011;46318;52.716;6.444;2023-08-12T02:04:39;12.75;;;9.85;;
60472;SDS011;46318;52.716;6.444;2023-08-12T02:07:07;10.38;;;9.35;;
60472;SDS011;46318;52.716;6.444;2023-08-12T02:09:33;10.70;;;9.60;;
60472;SDS011;46318;52.716;6.444;2023-08-12T02:11:59;9.95;;;8.82;;
60472;SDS011;46318;52.716;6.444;2023-08-12T02:14:25;11.00;;;9.18;;
60472;SDS011;46318;52.716;6.444;2023-08-12T02:16:51;10.98;;;9.88;;
60472;SDS011;46318;52.716;6.444;2023-08-12T02:19:17;10.90;;;9.50;;
60472;SDS011;46318;52.716;6.444;2023-08-12T02:21:43;10.60;;;9.20;;
60472;SDS011;46318;52.716;6.444;2023-08-12T02:24:09;10.65;;;9.55;;
60472;SDS011;46318;52.716;6.444;2023-08-12T02:26:34;11.48;;;9.57;;
60472;SDS011;46318;52.716;6.444;2023-08-12T02:29:00;10.57;;;9.50;;
60472;SDS011;46318;52.716;6.444;2023-08-12T02:31:26;10.77;;;9.70;;
60472;SDS011;46318;52.716;6.444;2023-08-12T02:33:52;10.63;;;9.18;;
60472;SDS011;46318;52.716;6.444;2023-08-12T02:36:18;10.52;;;9.52;;
60472;SDS011;46318;52.716;6.444;2023-08-12T02:38:44;14.18;;;9.27;;
60472;SDS011;46318;52.716;6.444;2023-08-12T02:41:10;10.45;;;9.43;;
60472;SDS011;46318;52.716;6.444;2023-08-12T02:43:36;10.55;;;9.55;;
60472;SDS011;46318;52.716;6.444;2023-08-12T02:46:01;10.52;;;9.43;;
60472;SDS011;46318;52.716;6.444;2023-08-12T02:48:27;10.75;;;9.55;;
60472;SDS011;46318;52.716;6.444;2023-08-12T02:50:53;11.75;;;9.52;;
60472;SDS011;46318;52.716;6.444;2023-08-12T02:53:19;10.75;;;9.63;;
60472;SDS011;46318;52.716;6.444;2023-08-12T02:55:45;14.65;;;10.02;;
60472;SDS011;46318;52.716;6.444;2023-08-12T02:58:11;11.18;;;9.77;;
60472;SDS011;46318;52.716;6.444;2023-08-12T03:00:37;10.80;;;9.07;;
60472;SDS011;46318;52.716;6.444;2023-08-12T03:03:06;10.25;;;9.25;;
60472;SDS011;46318;52.716;6.444;2023-08-12T03:05:32;11.48;;;9.57;;
60472;SDS011;46318;52.716;6.444;2023-08-12T03:07:58;10.85;;;9.40;;
60472;SDS011;46318;52.716;6.444;2023-08-12T03:10:26;13.88;;;10.20;;
60472;SDS011;46318;52.716;6.444;2023-08-12T03:12:52;10.85;;;9.75;;
60472;SDS011;46318;52.716;6.444;2023-08-12T03:15:18;12.20;;;9.57;;
60472;SDS011;46318;52.716;6.444;2023-08-12T03:17:45;12.32;;;9.82;;
60472;SDS011;46318;52.716;6.444;2023-08-12T03:20:10;11.18;;;9.77;;
60472;SDS011;46318;52.716;6.444;2023-08-12T03:22:37;13.18;;;9.82;;
60472;SDS011;46318;52.716;6.444;2023-08-12T03:25:04;11.90;;;10.73;;
60472;SDS011;46318;52.716;6.444;2023-08-12T03:27:33;11.60;;;9.90;;
60472;SDS011;46318;52.716;6.444;2023-08-12T03:29:59;10.93;;;9.57;;
60472;SDS011;46318;52.716;6.444;2023-08-12T03:32:25;12.23;;;9.75;;
60472;SDS011;46318;52.716;6.444;2023-08-12T03:34:51;11.02;;;9.93;;
60472;SDS011;46318;52.716;6.444;2023-08-12T03:37:23;11.38;;;10.27;;
60472;SDS011;46318;52.716;6.444;2023-08-12T03:39:50;12.00;;;9.80;;
60472;SDS011;46318;52.716;6.444;2023-08-12T03:42:16;11.07;;;9.98;;
60472;SDS011;46318;52.716;6.444;2023-08-12T03:44:43;13.48;;;10.90;;
60472;SDS011;46318;52.716;6.444;2023-08-12T03:47:09;12.80;;;11.50;;
60472;SDS011;46318;52.716;6.444;2023-08-12T03:49:36;13.77;;;10.63;;
60472;SDS011;46318;52.716;6.444;2023-08-12T03:52:03;13.68;;;10.80;;
60472;SDS011;46318;52.716;6.444;2023-08-12T03:54:29;13.90;;;10.63;;
60472;SDS011;46318;52.716;6.444;2023-08-12T03:56:55;12.13;;;10.75;;
60472;SDS011;46318;52.716;6.444;2023-08-12T03:59:21;13.40;;;10.45;;
60472;SDS011;46318;52.716;6.444;2023-08-12T04:01:47;13.05;;;11.48;;
60472;SDS011;46318;52.716;6.444;2023-08-12T04:04:14;12.50;;;10.93;;
60472;SDS011;46318;52.716;6.444;2023-08-12T04:06:40;13.73;;;10.55;;
60472;SDS011;46318;52.716;6.444;2023-08-12T04:09:06;12.48;;;11.10;;
60472;SDS011;46318;52.716;6.444;2023-08-12T04:11:32;13.82;;;11.43;;
60472;SDS011;46318;52.716;6.444;2023-08-12T04:13:58;12.25;;;10.93;;
60472;SDS011;46318;52.716;6.444;2023-08-12T04:16:24;12.73;;;11.43;;
60472;SDS011;46318;52.716;6.444;2023-08-12T04:18:50;16.55;;;12.77;;
60472;SDS011;46318;52.716;6.444;2023-08-12T04:21:15;15.93;;;13.18;;
60472;SDS011;46318;52.716;6.444;2023-08-12T04:23:41;13.40;;;11.75;;
60472;SDS011;46318;52.716;6.444;2023-08-12T04:26:07;13.88;;;12.48;;
60472;SDS011;46318;52.716;6.444;2023-08-12T04:28:33;15.50;;;12.50;;
60472;SDS011;46318;52.716;6.444;2023-08-12T04:30:59;13.40;;;12.10;;
60472;SDS011;46318;52.716;6.444;2023-08-12T04:33:25;15.38;;;12.65;;
60472;SDS011;46318;52.716;6.444;2023-08-12T04:35:51;13.82;;;12.43;;
60472;SDS011;46318;52.716;6.444;2023-08-12T04:38:18;14.13;;;11.90;;
60472;SDS011;46318;52.716;6.444;2023-08-12T04:40:44;12.60;;;11.50;;
60472;SDS011;46318;52.716;6.444;2023-08-12T04:43:10;14.88;;;12.82;;
60472;SDS011;46318;52.716;6.444;2023-08-12T04:45:38;14.75;;;13.25;;
60472;SDS011;46318;52.716;6.444;2023-08-12T04:48:04;12.90;;;11.65;;
60472;SDS011;46318;52.716;6.444;2023-08-12T04:50:33;15.35;;;13.70;;
60472;SDS011;46318;52.716;6.444;2023-08-12T04:53:00;14.63;;;13.07;;
60472;SDS011;46318;52.716;6.444;2023-08-12T04:55:26;15.20;;;12.88;;
60472;SDS011;46318;52.716;6.444;2023-08-12T04:57:52;16.30;;;13.70;;
60472;SDS011;46318;52.716;6.444;2023-08-12T05:00:19;14.80;;;13.27;;
60472;SDS011;46318;52.716;6.444;2023-08-12T05:02:46;16.63;;;14.80;;
60472;SDS011;46318;52.716;6.444;2023-08-12T05:05:16;15.35;;;13.32;;
60472;SDS011;46318;52.716;6.444;2023-08-12T05:07:41;15.20;;;13.60;;
60472;SDS011;46318;52.716;6.444;2023-08-12T05:10:09;15.75;;;14.13;;
60472;SDS011;46318;52.716;6.444;2023-08-12T05:12:35;16.20;;;14.60;;
60472;SDS011;46318;52.716;6.444;2023-08-12T05:15:01;17.45;;;15.80;;
60472;SDS011;46318;52.716;6.444;2023-08-12T05:17:27;19.27;;;15.05;;
60472;SDS011;46318;52.716;6.444;2023-08-12T05:19:53;16.58;;;14.25;;
60472;SDS011;46318;52.716;6.444;2023-08-12T05:22:19;18.85;;;16.88;;
60472;SDS011;46318;52.716;6.444;2023-08-12T05:24:45;16.88;;;14.68;;
60472;SDS011;46318;52.716;6.444;2023-08-12T05:27:11;18.92;;;17.05;;
60472;SDS011;46318;52.716;6.444;2023-08-12T05:29:36;17.50;;;15.65;;
60472;SDS011;46318;52.716;6.444;2023-08-12T05:32:02;18.42;;;16.33;;
60472;SDS011;46318;52.716;6.444;2023-08-12T05:34:28;18.55;;;16.65;;
60472;SDS011;46318;52.716;6.444;2023-08-12T05:36:54;19.38;;;17.33;;
60472;SDS011;46318;52.716;6.444;2023-08-12T05:39:20;20.60;;;16.80;;
60472;SDS011;46318;52.716;6.444;2023-08-12T05:41:46;18.52;;;16.63;;
60472;SDS011;46318;52.716;6.444;2023-08-12T05:44:12;20.38;;;18.42;;
60472;SDS011;46318;52.716;6.444;2023-08-12T05:46:38;21.52;;;19.27;;
60472;SDS011;46318;52.716;6.444;2023-08-12T05:49:04;21.42;;;19.23;;
60472;SDS011;46318;52.716;6.444;2023-08-12T05:51:29;21.35;;;19.25;;
60472;SDS011;46318;52.716;6.444;2023-08-12T05:53:55;21.75;;;19.35;;
60472;SDS011;46318;52.716;6.444;2023-08-12T05:56:21;24.33;;;21.67;;
60472;SDS011;46318;52.716;6.444;2023-08-12T05:58:47;20.85;;;18.85;;
60472;SDS011;46318;52.716;6.444;2023-08-12T06:01:13;23.02;;;19.83;;
60472;SDS011;46318;52.716;6.444;2023-08-12T06:03:40;24.67;;;20.10;;
60472;SDS011;46318;52.716;6.444;2023-08-12T06:06:06;24.65;;;20.00;;
60472;SDS011;46318;52.716;6.444;2023-08-12T06:08:32;21.85;;;19.67;;
60472;SDS011;46318;52.716;6.444;2023-08-12T06:10:57;22.20;;;19.98;;
60472;SDS011;46318;52.716;6.444;2023-08-12T06:13:23;20.98;;;18.85;;
60472;SDS011;46318;52.716;6.444;2023-08-12T06:15:49;23.13;;;20.92;;
60472;SDS011;46318;52.716;6.444;2023-08-12T06:18:15;25.13;;;19.50;;
60472;SDS011;46318;52.716;6.444;2023-08-12T06:20:41;26.15;;;21.77;;
60472;SDS011;46318;52.716;6.444;2023-08-12T06:23:07;23.35;;;20.88;;
60472;SDS011;46318;52.716;6.444;2023-08-12T06:25:33;22.65;;;20.45;;
60472;SDS011;46318;52.716;6.444;2023-08-12T06:28:01;21.67;;;19.42;;
60472;SDS011;46318;52.716;6.444;2023-08-12T06:30:29;22.05;;;18.67;;
60472;SDS011;46318;52.716;6.444;2023-08-12T06:32:55;22.58;;;20.17;;
60472;SDS011;46318;52.716;6.444;2023-08-12T06:35:21;25.63;;;20.33;;
60472;SDS011;46318;52.716;6.444;2023-08-12T06:37:47;21.98;;;19.45;;
60472;SDS011;46318;52.716;6.444;2023-08-12T06:40:13;20.67;;;18.50;;
60472;SDS011;46318;52.716;6.444;2023-08-12T06:42:39;26.05;;;19.73;;
60472;SDS011;46318;52.716;6.444;2023-08-12T06:45:05;22.73;;;20.33;;
60472;SDS011;46318;52.716;6.444;2023-08-12T06:47:31;23.30;;;20.50;;
60472;SDS011;46318;52.716;6.444;2023-08-12T06:49:57;23.25;;;19.40;;
60472;SDS011;46318;52.716;6.444;2023-08-12T06:52:23;20.77;;;18.58;;
60472;SDS011;46318;52.716;6.444;2023-08-12T06:54:49;20.42;;;18.35;;
60472;SDS011;46318;52.716;6.444;2023-08-12T06:57:15;24.42;;;20.15;;
60472;SDS011;46318;52.716;6.444;2023-08-12T06:59:41;21.52;;;19.20;;
60472;SDS011;46318;52.716;6.444;2023-08-12T07:02:07;21.63;;;19.08;;
60472;SDS011;46318;52.716;6.444;2023-08-12T07:04:33;21.35;;;19.00;;
60472;SDS011;46318;52.716;6.444;2023-08-12T07:06:59;19.80;;;17.80;;
60472;SDS011;46318;52.716;6.444;2023-08-12T07:09:25;21.75;;;18.08;;
60472;SDS011;46318;52.716;6.444;2023-08-12T07:11:51;22.17;;;19.38;;
60472;SDS011;46318;52.716;6.444;2023-08-12T07:14:16;20.10;;;18.15;;
60472;SDS011;46318;52.716;6.444;2023-08-12T07:16:43;22.80;;;18.75;;
60472;SDS011;46318;52.716;6.444;2023-08-12T07:19:09;20.92;;;18.65;;
60472;SDS011;46318;52.716;6.444;2023-08-12T07:21:35;20.00;;;17.77;;
60472;SDS011;46318;52.716;6.444;2023-08-12T07:24:00;21.00;;;19.00;;
60472;SDS011;46318;52.716;6.444;2023-08-12T07:26:26;19.73;;;17.80;;
60472;SDS011;46318;52.716;6.444;2023-08-12T07:28:52;20.88;;;18.67;;
60472;SDS011;46318;52.716;6.444;2023-08-12T07:31:18;21.45;;;19.33;;
60472;SDS011;46318;52.716;6.444;2023-08-12T07:33:44;21.42;;;19.02;;
60472;SDS011;46318;52.716;6.444;2023-08-12T07:36:10;22.55;;;19.17;;
60472;SDS011;46318;52.716;6.444;2023-08-12T07:38:37;21.65;;;19.00;;
60472;SDS011;46318;52.716;6.444;2023-08-12T07:41:06;21.20;;;18.90;;
60472;SDS011;46318;52.716;6.444;2023-08-12T07:47:09;23.75;;;21.33;;
60472;SDS011;46318;52.716;6.444;2023-08-12T07:49:35;21.20;;;19.08;;
60472;SDS011;46318;52.716;6.444;2023-08-12T07:52:04;24.38;;;22.00;;
60472;SDS011;46318;52.716;6.444;2023-08-12T07:54:30;21.98;;;19.77;;
60472;SDS011;46318;52.716;6.444;2023-08-12T07:56:56;22.60;;;19.38;;
60472;SDS011;46318;52.716;6.444;2023-08-12T07:59:22;21.25;;;19.02;;
60472;SDS011;46318;52.716;6.444;2023-08-12T08:01:48;24.20;;;21.70;;
60472;SDS011;46318;52.716;6.444;2023-08-12T08:04:16;22.48;;;19.52;;
60472;SDS011;46318;52.716;6.444;2023-08-12T08:06:45;25.33;;;20.95;;
60472;SDS011;46318;52.716;6.444;2023-08-12T08:09:11;25.17;;;20.98;;
60472;SDS011;46318;52.716;6.444;2023-08-12T08:11:39;22.40;;;20.20;;
60472;SDS011;46318;52.716;6.444;2023-08-12T08:14:06;21.50;;;16.65;;
60472;SDS011;46318;52.716;6.444;2023-08-12T08:16:32;17.75;;;15.95;;
60472;SDS011;46318;52.716;6.444;2023-08-12T08:18:59;17.08;;;15.38;;
60472;SDS011;46318;52.716;6.444;2023-08-12T08:21:25;12.57;;;11.27;;
60472;SDS011;46318;52.716;6.444;2023-08-12T08:23:52;12.57;;;11.27;;
60472;SDS011;46318;52.716;6.444;2023-08-12T08:26:22;12.07;;;10.88;;
60472;SDS011;46318;52.716;6.444;2023-08-12T08:28:53;11.45;;;9.38;;
60472;SDS011;46318;52.716;6.444;2023-08-12T08:31:19;9.27;;;8.38;;
60472;SDS011;46318;52.716;6.444;2023-08-12T08:33:50;11.13;;;10.02;;
60472;SDS011;46318;52.716;6.444;2023-08-12T08:36:16;8.80;;;7.90;;
60472;SDS011;46318;52.716;6.444;2023-08-12T08:38:43;8.57;;;7.68;;
60472;SDS011;46318;52.716;6.444;2023-08-12T08:41:09;8.40;;;7.30;;
60472;SDS011;46318;52.716;6.444;2023-08-12T08:43:36;7.53;;;6.82;;
60472;SDS011;46318;52.716;6.444;2023-08-12T08:46:16;7.78;;;7.07;;
60472;SDS011;46318;52.716;6.444;2023-08-12T08:48:42;8.45;;;7.75;;
60472;SDS011;46318;52.716;6.444;2023-08-12T08:51:11;6.43;;;5.93;;
60472;SDS011;46318;52.716;6.444;2023-08-12T08:53:37;12.20;;;11.10;;
60472;SDS011;46318;52.716;6.444;2023-08-12T08:56:08;15.18;;;13.57;;
60472;SDS011;46318;52.716;6.444;2023-08-12T08:58:37;7.32;;;6.72;;
60472;SDS011;46318;52.716;6.444;2023-08-12T09:01:05;7.97;;;6.70;;
60472;SDS011;46318;52.716;6.444;2023-08-12T09:03:37;6.35;;;5.13;;
60472;SDS011;46318;52.716;6.444;2023-08-12T09:06:07;5.55;;;5.05;;
60472;SDS011;46318;52.716;6.444;2023-08-12T09:11:13;6.93;;;6.03;;
60472;SDS011;46318;52.716;6.444;2023-08-12T09:13:42;8.15;;;7.40;;
60472;SDS011;46318;52.716;6.444;2023-08-12T09:16:09;7.07;;;6.10;;
60472;SDS011;46318;52.716;6.444;2023-08-12T09:18:36;6.13;;;5.55;;
60472;SDS011;46318;52.716;6.444;2023-08-12T09:21:05;6.32;;;5.45;;
60472;SDS011;46318;52.716;6.444;2023-08-12T09:23:45;5.90;;;5.40;;
60472;SDS011;46318;52.716;6.444;2023-08-12T09:26:26;6.18;;;4.90;;
60472;SDS011;46318;52.716;6.444;2023-08-12T09:28:53;5.13;;;4.72;;
60472;SDS011;46318;52.716;6.444;2023-08-12T09:31:23;4.40;;;4.00;;
60472;SDS011;46318;52.716;6.444;2023-08-12T09:33:59;3.60;;;3.28;;
60472;SDS011;46318;52.716;6.444;2023-08-12T09:36:33;2.25;;;2.05;;
60472;SDS011;46318;52.716;6.444;2023-08-12T09:39:05;2.65;;;2.33;;
60472;SDS011;46318;52.716;6.444;2023-08-12T09:41:33;4.13;;;2.55;;
60472;SDS011;46318;52.716;6.444;2023-08-12T09:44:03;7.38;;;6.60;;
60472;SDS011;46318;52.716;6.444;2023-08-12T09:46:29;2.90;;;2.35;;
60472;SDS011;46318;52.716;6.444;2023-08-12T09:49:03;2.30;;;2.10;;
60472;SDS011;46318;52.716;6.444;2023-08-12T09:51:33;3.15;;;2.25;;
60472;SDS011;46318;52.716;6.444;2023-08-12T09:54:05;2.13;;;1.55;;
60472;SDS011;46318;52.716;6.444;2023-08-12T09:56:36;3.80;;;2.58;;
60472;SDS011;46318;52.716;6.444;2023-08-12T09:59:05;2.97;;;2.63;;
60472;SDS011;46318;52.716;6.444;2023-08-12T10:01:33;5.18;;;4.20;;
60472;SDS011;46318;52.716;6.444;2023-08-12T10:04:00;3.47;;;2.25;;
60472;SDS011;46318;52.716;6.444;2023-08-12T10:06:32;2.42;;;2.22;;
60472;SDS011;46318;52.716;6.444;2023-08-12T10:09:03;3.30;;;2.35;;
60472;SDS011;46318;52.716;6.444;2023-08-12T10:11:33;2.28;;;1.90;;
60472;SDS011;46318;52.716;6.444;2023-08-12T10:14:03;3.60;;;2.20;;
60472;SDS011;46318;52.716;6.444;2023-08-12T10:16:36;2.60;;;2.20;;
60472;SDS011;46318;52.716;6.444;2023-08-12T10:19:04;3.22;;;2.92;;
60472;SDS011;46318;52.716;6.444;2023-08-12T10:21:31;3.65;;;3.25;;
60472;SDS011;46318;52.716;6.444;2023-08-12T10:23:58;3.65;;;3.35;;
60472;SDS011;46318;52.716;6.444;2023-08-12T10:26:25;4.32;;;2.67;;
60472;SDS011;46318;52.716;6.444;2023-08-12T10:28:54;3.65;;;2.50;;
60472;SDS011;46318;52.716;6.444;2023-08-12T10:31:20;2.80;;;2.60;;
60472;SDS011;46318;52.716;6.444;2023-08-12T10:33:46;2.53;;;2.33;;
60472;SDS011;46318;52.716;6.444;2023-08-12T10:36:15;2.58;;;2.33;;
60472;SDS011;46318;52.716;6.444;2023-08-12T10:38:44;2.20;;;2.05;;
60472;SDS011;46318;52.716;6.444;2023-08-12T10:41:15;2.17;;;1.98;;
60472;SDS011;46318;52.716;6.444;2023-08-12T10:46:39;1.65;;;1.55;;
60472;SDS011;46318;52.716;6.444;2023-08-12T10:49:06;2.00;;;1.80;;
60472;SDS011;46318;52.716;6.444;2023-08-12T10:51:40;3.03;;;2.83;;
60472;SDS011;46318;52.716;6.444;2023-08-12T10:54:21;2.40;;;2.20;;
60472;SDS011;46318;52.716;6.444;2023-08-12T11:02:21;3.40;;;3.10;;
60472;SDS011;46318;52.716;6.444;2023-08-12T11:05:18;4.95;;;4.55;;
60472;SDS011;46318;52.716;6.444;2023-08-12T11:07:58;2.65;;;2.45;;
60472;SDS011;46318;52.716;6.444;2023-08-12T11:12:59;4.15;;;3.75;;
60472;SDS011;46318;52.716;6.444;2023-08-12T11:18:14;3.10;;;2.90;;
60472;SDS011;46318;52.716;6.444;2023-08-12T11:20:43;2.83;;;2.63;;
60472;SDS011;46318;52.716;6.444;2023-08-12T11:23:10;3.80;;;3.50;;
60472;SDS011;46318;52.716;6.444;2023-08-12T11:25:38;3.33;;;3.03;;
60472;SDS011;46318;52.716;6.444;2023-08-12T11:28:07;3.03;;;2.83;;
60472;SDS011;46318;52.716;6.444;2023-08-12T11:30:49;3.40;;;3.20;;
60472;SDS011;46318;52.716;6.444;2023-08-12T11:33:16;3.20;;;3.00;;
60472;SDS011;46318;52.716;6.444;2023-08-12T11:35:46;3.00;;;2.80;;
60472;SDS011;46318;52.716;6.444;2023-08-12T11:38:12;2.95;;;2.75;;
60472;SDS011;46318;52.716;6.444;2023-08-12T11:40:41;2.13;;;1.92;;
60472;SDS011;46318;52.716;6.444;2023-08-12T11:43:07;1.88;;;1.77;;
60472;SDS011;46318;52.716;6.444;2023-08-12T11:45:33;1.75;;;1.50;;
60472;SDS011;46318;52.716;6.444;2023-08-12T11:47:59;1.55;;;1.30;;
60472;SDS011;46318;52.716;6.444;2023-08-12T11:50:26;1.85;;;1.52;;
60472;SDS011;46318;52.716;6.444;2023-08-12T11:52:53;1.85;;;1.75;;
60472;SDS011;46318;52.716;6.444;2023-08-12T11:55:22;2.10;;;1.98;;
60472;SDS011;46318;52.716;6.444;2023-08-12T11:57:50;2.58;;;2.30;;
60472;SDS011;46318;52.716;6.444;2023-08-12T12:00:17;2.60;;;2.40;;
60472;SDS011;46318;52.716;6.444;2023-08-12T12:05:21;3.10;;;2.80;;
60472;SDS011;46318;52.716;6.444;2023-08-12T12:08:04;2.30;;;2.10;;
60472;SDS011;46318;52.716;6.444;2023-08-12T12:10:34;2.72;;;2.20;;
60472;SDS011;46318;52.716;6.444;2023-08-12T12:13:01;2.97;;;2.13;;
60472;SDS011;46318;52.716;6.444;2023-08-12T12:15:29;2.95;;;1.92;;
60472;SDS011;46318;52.716;6.444;2023-08-12T12:17:56;4.40;;;2.60;;
60472;SDS011;46318;52.716;6.444;2023-08-12T12:20:23;4.70;;;2.25;;
60472;SDS011;46318;52.716;6.444;2023-08-12T12:22:52;3.75;;;2.30;;
60472;SDS011;46318;52.716;6.444;2023-08-12T12:25:20;4.60;;;2.35;;
60472;SDS011;46318;52.716;6.444;2023-08-12T12:27:47;5.05;;;2.50;;
60472;SDS011;46318;52.716;6.444;2023-08-12T12:30:14;3.83;;;1.90;;
60472;SDS011;46318;52.716;6.444;2023-08-12T12:32:41;2.78;;;2.35;;
60472;SDS011;46318;52.716;6.444;2023-08-12T12:35:07;5.65;;;2.20;;
60472;SDS011;46318;52.716;6.444;2023-08-12T12:37:34;5.68;;;2.47;;
60472;SDS011;46318;52.716;6.444;2023-08-12T12:40:01;3.40;;;1.98;;
60472;SDS011;46318;52.716;6.444;2023-08-12T12:42:29;4.85;;;2.10;;
60472;SDS011;46318;52.716;6.444;2023-08-12T12:44:55;5.43;;;2.42;;
60472;SDS011;46318;52.716;6.444;2023-08-12T12:47:30;5.20;;;2.22;;
60472;SDS011;46318;52.716;6.444;2023-08-12T12:49:55;4.45;;;2.00;;
60472;SDS011;46318;52.716;6.444;2023-08-12T12:52:21;3.67;;;2.03;;
60472;SDS011;46318;52.716;6.444;2023-08-12T12:54:47;4.05;;;2.20;;
60472;SDS011;46318;52.716;6.444;2023-08-12T12:57:13;5.05;;;2.30;;
60472;SDS011;46318;52.716;6.444;2023-08-12T12:59:43;6.28;;;2.80;;
60472;SDS011;46318;52.716;6.444;2023-08-12T13:02:09;3.53;;;2.03;;
60472;SDS011;46318;52.716;6.444;2023-08-12T13:04:35;3.15;;;2.08;;
60472;SDS011;46318;52.716;6.444;2023-08-12T13:07:01;4.35;;;1.92;;
60472;SDS011;46318;52.716;6.444;2023-08-12T13:09:27;4.35;;;2.17;;
60472;SDS011;46318;52.716;6.444;2023-08-12T13:11:53;6.68;;;2.88;;
60472;SDS011;46318;52.716;6.444;2023-08-12T13:14:22;4.55;;;2.35;;
60472;SDS011;46318;52.716;6.444;2023-08-12T13:16:50;4.90;;;2.30;;
60472;SDS011;46318;52.716;6.444;2023-08-12T13:19:16;4.63;;;2.40;;
60472;SDS011;46318;52.716;6.444;2023-08-12T13:21:42;5.30;;;2.40;;
60472;SDS011;46318;52.716;6.444;2023-08-12T13:24:08;5.10;;;1.92;;
60472;SDS011;46318;52.716;6.444;2023-08-12T13:26:34;5.70;;;2.13;;
60472;SDS011;46318;52.716;6.444;2023-08-12T13:29:00;6.75;;;2.30;;
60472;SDS011;46318;52.716;6.444;2023-08-12T13:31:26;5.00;;;2.13;;
60472;SDS011;46318;52.716;6.444;2023-08-12T13:33:51;6.25;;;3.15;;
60472;SDS011;46318;52.716;6.444;2023-08-12T13:36:17;5.85;;;2.50;;
60472;SDS011;46318;52.716;6.444;2023-08-12T13:38:43;5.85;;;2.42;;
60472;SDS011;46318;52.716;6.444;2023-08-12T13:41:09;5.63;;;2.63;;
60472;SDS011;46318;52.716;6.444;2023-08-12T13:43:35;6.68;;;2.35;;
60472;SDS011;46318;52.716;6.444;2023-08-12T13:46:01;7.43;;;3.05;;
60472;SDS011;46318;52.716;6.444;2023-08-12T13:48:27;5.20;;;2.20;;
60472;SDS011;46318;52.716;6.444;2023-08-12T13:50:53;6.50;;;2.40;;
60472;SDS011;46318;52.716;6.444;2023-08-12T13:53:23;5.25;;;2.33;;
60472;SDS011;46318;52.716;6.444;2023-08-12T13:55:51;4.50;;;2.42;;
60472;SDS011;46318;52.716;6.444;2023-08-12T13:58:18;5.03;;;2.38;;
60472;SDS011;46318;52.716;6.444;2023-08-12T14:00:44;9.02;;;2.78;;
60472;SDS011;46318;52.716;6.444;2023-08-12T14:03:12;6.97;;;2.38;;
60472;SDS011;46318;52.716;6.444;2023-08-12T14:05:38;7.60;;;3.22;;
60472;SDS011;46318;52.716;6.444;2023-08-12T14:08:04;8.00;;;2.50;;
60472;SDS011;46318;52.716;6.444;2023-08-12T14:10:31;5.47;;;2.10;;
60472;SDS011;46318;52.716;6.444;2023-08-12T14:12:56;6.53;;;2.63;;
60472;SDS011;46318;52.716;6.444;2023-08-12T14:15:22;4.93;;;2.55;;
60472;SDS011;46318;52.716;6.444;2023-08-12T14:17:48;8.23;;;3.03;;
60472;SDS011;46318;52.716;6.444;2023-08-12T14:20:14;4.93;;;2.40;;
60472;SDS011;46318;52.716;6.444;2023-08-12T14:22:41;6.82;;;2.60;;
60472;SDS011;46318;52.716;6.444;2023-08-12T14:25:09;4.63;;;2.22;;
60472;SDS011;46318;52.716;6.444;2023-08-12T14:27:36;5.53;;;2.30;;
60472;SDS011;46318;52.716;6.444;2023-08-12T14:30:02;6.75;;;2.50;;
60472;SDS011;46318;52.716;6.444;2023-08-12T14:32:29;6.07;;;2.38;;
60472;SDS011;46318;52.716;6.444;2023-08-12T14:34:55;5.60;;;2.33;;
60472;SDS011;46318;52.716;6.444;2023-08-12T14:37:20;6.75;;;2.28;;
60472;SDS011;46318;52.716;6.444;2023-08-12T14:39:46;6.82;;;2.50;;
60472;SDS011;46318;52.716;6.444;2023-08-12T14:42:12;5.65;;;2.25;;
60472;SDS011;46318;52.716;6.444;2023-08-12T14:44:38;7.13;;;2.15;;
60472;SDS011;46318;52.716;6.444;2023-08-12T14:47:05;7.72;;;2.22;;
60472;SDS011;46318;52.716;6.444;2023-08-12T14:49:31;7.53;;;2.58;;
60472;SDS011;46318;52.716;6.444;2023-08-12T14:51:57;6.07;;;2.50;;
60472;SDS011;46318;52.716;6.444;2023-08-12T14:54:23;85.57;;;77.40;;
60472;SDS011;46318;52.716;6.444;2023-08-12T14:56:49;7.75;;;4.78;;
60472;SDS011;46318;52.716;6.444;2023-08-12T14:59:15;10.10;;;6.95;;